Allerton, Illinois
Current Conditions -  °F | °C
As of 7:53 AM on Friday 19 Dec 2014 (Local Time) from KCMI Reporting Station
Haze Haze  
Wind Chill: 20°   Ceiling: Unl
Heat Index: 20°   Visibility: 6mi
Dew Point: 16°   Wind: 0mph
Humidity: 85%   Direction: NA
Pressure: 30.31"   Gusts: NA
Location:  39.91°N, 87.94°W
Report Text: KCMI 191353Z 00000KT 6SM BR CLR M07/M09 A3031 RMK AO2 SLP276 T10671089
Loading
Personal Weather Stations






























Interactive Weather Map New forecast layout! Learn more

10-Day Weather Forecast

Advertisements
Track Severe Weather on mobile